sensor_id;sensor_type;location;lat;lon;timestamp;pressure;altitude;pressure_sealevel;temperature;humidity
53932;BME280;39844;52.496;13.482;2023-07-31T00:02:13;100881.13;;;16.02;95.05
53932;BME280;39844;52.496;13.482;2023-07-31T00:04:39;100872.41;;;15.98;95.78
53932;BME280;39844;52.496;13.482;2023-07-31T00:07:04;100874.22;;;15.96;95.67
53932;BME280;39844;52.496;13.482;2023-07-31T00:09:29;100875.13;;;15.95;96.28
53932;BME280;39844;52.496;13.482;2023-07-31T00:11:57;100868.94;;;15.95;96.87
53932;BME280;39844;52.496;13.482;2023-07-31T00:14:23;100864.56;;;15.94;97.45
53932;BME280;39844;52.496;13.482;2023-07-31T00:16:53;100864.59;;;15.92;97.61
53932;BME280;39844;52.496;13.482;2023-07-31T00:19:22;100871.66;;;15.92;98.60
53932;BME280;39844;52.496;13.482;2023-07-31T00:21:50;100869.94;;;15.91;99.18
53932;BME280;39844;52.496;13.482;2023-07-31T00:24:18;100863.81;;;15.89;99.20
53932;BME280;39844;52.496;13.482;2023-07-31T00:27:07;100867.22;;;15.94;100.00
53932;BME280;39844;52.496;13.482;2023-07-31T00:29:35;100858.41;;;15.93;100.00
53932;BME280;39844;52.496;13.482;2023-07-31T00:32:03;100851.41;;;15.91;100.00
53932;BME280;39844;52.496;13.482;2023-07-31T00:34:33;100850.53;;;15.90;100.00
53932;BME280;39844;52.496;13.482;2023-07-31T00:37:02;100850.53;;;15.90;100.00
53932;BME280;39844;52.496;13.482;2023-07-31T00:39:30;100832.75;;;15.95;100.00
53932;BME280;39844;52.496;13.482;2023-07-31T00:41:59;100838.13;;;15.92;100.00
53932;BME280;39844;52.496;13.482;2023-07-31T00:44:27;100843.47;;;15.91;100.00
53932;BME280;39844;52.496;13.482;2023-07-31T00:46:55;100843.47;;;15.89;100.00
53932;BME280;39844;52.496;13.482;2023-07-31T00:49:22;100835.53;;;15.91;100.00
53932;BME280;39844;52.496;13.482;2023-07-31T00:51:48;100833.75;;;15.91;100.00
53932;BME280;39844;52.496;13.482;2023-07-31T00:54:13;100829.34;;;15.90;100.00
53932;BME280;39844;52.496;13.482;2023-07-31T00:56:46;100837.25;;;15.92;100.00
53932;BME280;39844;52.496;13.482;2023-07-31T00:59:11;100829.34;;;15.90;100.00
53932;BME280;39844;52.496;13.482;2023-07-31T01:01:37;100829.34;;;15.90;100.00
53932;BME280;39844;52.496;13.482;2023-07-31T01:04:04;100839.03;;;15.91;100.00
53932;BME280;39844;52.496;13.482;2023-07-31T01:06:47;100832.81;;;15.92;100.00
53932;BME280;39844;52.496;13.482;2023-07-31T01:12:07;100827.47;;;15.95;100.00
53932;BME280;39844;52.496;13.482;2023-07-31T01:14:34;100827.47;;;15.95;100.00
53932;BME280;39844;52.496;13.482;2023-07-31T01:17:00;100830.06;;;15.97;100.00
53932;BME280;39844;52.496;13.482;2023-07-31T01:19:26;100818.53;;;15.99;100.00
53932;BME280;39844;52.496;13.482;2023-07-31T01:24:55;100813.09;;;16.05;100.00
53932;BME280;39844;52.496;13.482;2023-07-31T01:27:31;100813.16;;;16.02;100.00
53932;BME280;39844;52.496;13.482;2023-07-31T01:30:05;100807.09;;;15.99;100.00
53932;BME280;39844;52.496;13.482;2023-07-31T01:32:34;100812.41;;;15.97;100.00
53932;BME280;39844;52.496;13.482;2023-07-31T01:35:00;100810.56;;;16.01;100.00
53932;BME280;39844;52.496;13.482;2023-07-31T01:37:29;100820.22;;;16.03;100.00
53932;BME280;39844;52.496;13.482;2023-07-31T01:39:54;100813.16;;;16.02;100.00
53932;BME280;39844;52.496;13.482;2023-07-31T01:42:19;100806.13;;;16.01;100.00
53932;BME280;39844;52.496;13.482;2023-07-31T01:44:44;100809.69;;;16.00;100.00
53932;BME280;39844;52.496;13.482;2023-07-31T01:47:10;100799.91;;;16.04;100.00
53932;BME280;39844;52.496;13.482;2023-07-31T01:49:35;100796.31;;;16.05;100.00
53932;BME280;39844;52.496;13.482;2023-07-31T01:52:00;100789.25;;;16.05;100.00
53932;BME280;39844;52.496;13.482;2023-07-31T01:54:26;100791.88;;;16.07;100.00
53932;BME280;39844;52.496;13.482;2023-07-31T01:56:51;100791.03;;;16.05;100.00
53932;BME280;39844;52.496;13.482;2023-07-31T01:59:16;100783.13;;;16.03;100.00
53932;BME280;39844;52.496;13.482;2023-07-31T02:01:41;100783.09;;;16.05;100.00
53932;BME280;39844;52.496;13.482;2023-07-31T02:04:07;100778.53;;;16.10;100.00
53932;BME280;39844;52.496;13.482;2023-07-31T02:06:32;100788.13;;;16.15;100.00
53932;BME280;39844;52.496;13.482;2023-07-31T02:08:57;100784.56;;;16.16;100.00
53932;BME280;39844;52.496;13.482;2023-07-31T02:11:23;100789.81;;;16.18;100.00
53932;BME280;39844;52.496;13.482;2023-07-31T02:13:48;100783.63;;;16.17;100.00
53932;BME280;39844;52.496;13.482;2023-07-31T02:16:13;100793.38;;;16.17;100.00
53932;BME280;39844;52.496;13.482;2023-07-31T02:18:38;100783.69;;;16.16;100.00
53932;BME280;39844;52.496;13.482;2023-07-31T02:21:04;100775.75;;;16.16;100.00
53932;BME280;39844;52.496;13.482;2023-07-31T02:23:29;100773.97;;;16.16;100.00
53932;BME280;39844;52.496;13.482;2023-07-31T02:25:57;100781.09;;;16.14;100.00
53932;BME280;39844;52.496;13.482;2023-07-31T02:28:22;100779.28;;;16.15;100.00
53932;BME280;39844;52.496;13.482;2023-07-31T02:30:47;100784.56;;;16.16;100.00
53932;BME280;39844;52.496;13.482;2023-07-31T02:33:17;100782.78;;;16.17;100.00
53932;BME280;39844;52.496;13.482;2023-07-31T02:35:42;100769.56;;;16.15;100.00
53932;BME280;39844;52.496;13.482;2023-07-31T02:38:08;100777.59;;;16.12;100.00
53932;BME280;39844;52.496;13.482;2023-07-31T02:40:33;100765.28;;;16.11;100.00
53932;BME280;39844;52.496;13.482;2023-07-31T02:42:58;100766.16;;;16.12;100.00
53932;BME280;39844;52.496;13.482;2023-07-31T02:45:23;100759.06;;;16.12;100.00
53932;BME280;39844;52.496;13.482;2023-07-31T02:47:49;100760.81;;;16.13;100.00
53932;BME280;39844;52.496;13.482;2023-07-31T02:50:14;100751.03;;;16.15;100.00
53932;BME280;39844;52.496;13.482;2023-07-31T02:52:39;100749.19;;;16.17;100.00
53932;BME280;39844;52.496;13.482;2023-07-31T02:55:05;100749.25;;;16.16;100.00
53932;BME280;39844;52.496;13.482;2023-07-31T02:57:31;100755.44;;;16.15;100.00
53932;BME280;39844;52.496;13.482;2023-07-31T02:59:56;100752.84;;;16.13;100.00
53932;BME280;39844;52.496;13.482;2023-07-31T03:02:21;100752.94;;;16.10;100.00
53932;BME280;39844;52.496;13.482;2023-07-31T03:04:47;100758.22;;;16.10;100.00
53932;BME280;39844;52.496;13.482;2023-07-31T03:07:12;100755.72;;;16.06;100.00
53932;BME280;39844;52.496;13.482;2023-07-31T03:09:37;100756.59;;;16.06;100.00
53932;BME280;39844;52.496;13.482;2023-07-31T03:12:06;100755.72;;;16.04;100.00
53932;BME280;39844;52.496;13.482;2023-07-31T03:14:31;100761.03;;;16.04;100.00
53932;BME280;39844;52.496;13.482;2023-07-31T03:16:56;100758.38;;;16.04;100.00
53932;BME280;39844;52.496;13.482;2023-07-31T03:19:22;100753.19;;;16.01;100.00
53932;BME280;39844;52.496;13.482;2023-07-31T03:21:47;100747.88;;;16.01;100.00
53932;BME280;39844;52.496;13.482;2023-07-31T03:24:12;100752.31;;;16.01;100.00
53932;BME280;39844;52.496;13.482;2023-07-31T03:26:38;100745.25;;;16.01;100.00
53932;BME280;39844;52.496;13.482;2023-07-31T03:29:03;100742.59;;;16.01;100.00
53932;BME280;39844;52.496;13.482;2023-07-31T03:31:29;100739.00;;;16.02;100.00
53932;BME280;39844;52.496;13.482;2023-07-31T03:33:54;100734.59;;;16.03;100.00
53932;BME280;39844;52.496;13.482;2023-07-31T03:36:19;100736.38;;;16.02;100.00
53932;BME280;39844;52.496;13.482;2023-07-31T03:38:46;100738.06;;;16.05;100.00
53932;BME280;39844;52.496;13.482;2023-07-31T03:41:11;100739.84;;;16.04;100.00
53932;BME280;39844;52.496;13.482;2023-07-31T03:43:36;100726.69;;;16.01;100.00
53932;BME280;39844;52.496;13.482;2023-07-31T03:46:02;100732.91;;;16.00;100.00
53932;BME280;39844;52.496;13.482;2023-07-31T03:48:28;100726.69;;;16.01;100.00
53932;BME280;39844;52.496;13.482;2023-07-31T03:50:53;100720.53;;;16.01;100.00
53932;BME280;39844;52.496;13.482;2023-07-31T03:53:18;100723.13;;;16.02;100.00
53932;BME280;39844;52.496;13.482;2023-07-31T03:55:44;100724.91;;;16.02;100.00
53932;BME280;39844;52.496;13.482;2023-07-31T03:58:09;100727.53;;;16.02;100.00
53932;BME280;39844;52.496;13.482;2023-07-31T04:00:34;100720.47;;;16.02;100.00
53932;BME280;39844;52.496;13.482;2023-07-31T04:03:00;100721.41;;;16.01;100.00
53932;BME280;39844;52.496;13.482;2023-07-31T04:05:25;100722.31;;;16.00;100.00
53932;BME280;39844;52.496;13.482;2023-07-31T04:07:50;100717.97;;;15.98;100.00
53932;BME280;39844;52.496;13.482;2023-07-31T04:10:16;100718.75;;;16.01;100.00
53932;BME280;39844;52.496;13.482;2023-07-31T04:12:41;100712.53;;;16.02;100.00
53932;BME280;39844;52.496;13.482;2023-07-31T04:15:06;100720.38;;;16.07;100.00
53932;BME280;39844;52.496;13.482;2023-07-31T04:17:32;100708.91;;;16.06;100.00
53932;BME280;39844;52.496;13.482;2023-07-31T04:19:57;100712.44;;;16.07;100.00
53932;BME280;39844;52.496;13.482;2023-07-31T04:22:22;100707.91;;;16.10;100.00
53932;BME280;39844;52.496;13.482;2023-07-31T04:24:48;100699.09;;;16.10;100.00
53932;BME280;39844;52.496;13.482;2023-07-31T04:27:13;100702.59;;;16.12;100.00
53932;BME280;39844;52.496;13.482;2023-07-31T04:29:38;100699.06;;;16.11;100.00
53932;BME280;39844;52.496;13.482;2023-07-31T04:32:04;100698.06;;;16.15;100.00
53932;BME280;39844;52.496;13.482;2023-07-31T04:34:29;100691.88;;;16.15;100.00
53932;BME280;39844;52.496;13.482;2023-07-31T04:36:54;100702.41;;;16.18;100.00
53932;BME280;39844;52.496;13.482;2023-07-31T04:39:20;100685.63;;;16.17;100.00
53932;BME280;39844;52.496;13.482;2023-07-31T04:41:45;100690.88;;;16.20;100.00
53932;BME280;39844;52.496;13.482;2023-07-31T04:44:10;100692.63;;;16.20;100.00
53932;BME280;39844;52.496;13.482;2023-07-31T04:46:35;100699.63;;;16.22;100.00
53932;BME280;39844;52.496;13.482;2023-07-31T04:49:01;100687.25;;;16.23;100.00
53932;BME280;39844;52.496;13.482;2023-07-31T04:51:26;100685.44;;;16.25;100.00
53932;BME280;39844;52.496;13.482;2023-07-31T04:53:51;100684.47;;;16.27;100.00
53932;BME280;39844;52.496;13.482;2023-07-31T04:56:17;100677.38;;;16.29;100.00
53932;BME280;39844;52.496;13.482;2023-07-31T04:58:44;100694.16;;;16.28;100.00
53932;BME280;39844;52.496;13.482;2023-07-31T05:01:09;100685.41;;;16.26;100.00
53932;BME280;39844;52.496;13.482;2023-07-31T05:03:35;100687.13;;;16.27;100.00
53932;BME280;39844;52.496;13.482;2023-07-31T05:06:00;100680.84;;;16.31;100.00
53932;BME280;39844;52.496;13.482;2023-07-31T05:08:25;100682.47;;;16.35;100.00
53932;BME280;39844;52.496;13.482;2023-07-31T05:10:51;100678.00;;;16.37;100.00
53932;BME280;39844;52.496;13.482;2023-07-31T05:13:17;100686.75;;;16.41;100.00
53932;BME280;39844;52.496;13.482;2023-07-31T05:15:42;100683.13;;;16.43;100.00
53932;BME280;39844;52.496;13.482;2023-07-31T05:18:07;100687.34;;;16.51;100.00
53932;BME280;39844;52.496;13.482;2023-07-31T05:20:32;100683.75;;;16.55;100.00
53932;BME280;39844;52.496;13.482;2023-07-31T05:22:58;100687.25;;;16.55;100.00
53932;BME280;39844;52.496;13.482;2023-07-31T05:25:23;100683.63;;;16.58;100.00
53932;BME280;39844;52.496;13.482;2023-07-31T05:27:48;100681.84;;;16.58;100.00
53932;BME280;39844;52.496;13.482;2023-07-31T05:30:14;100681.91;;;16.57;100.00
53932;BME280;39844;52.496;13.482;2023-07-31T05:32:39;100674.78;;;16.59;100.00
53932;BME280;39844;52.496;13.482;2023-07-31T05:35:05;100675.59;;;16.61;100.00
53932;BME280;39844;52.496;13.482;2023-07-31T05:37:30;100672.91;;;16.62;100.00
53932;BME280;39844;52.496;13.482;2023-07-31T05:39:55;100676.38;;;16.64;100.00
53932;BME280;39844;52.496;13.482;2023-07-31T05:42:21;100670.13;;;16.67;100.00
53932;BME280;39844;52.496;13.482;2023-07-31T05:44:46;100676.31;;;16.67;100.00
53932;BME280;39844;52.496;13.482;2023-07-31T05:47:11;100672.69;;;16.70;100.00
53932;BME280;39844;52.496;13.482;2023-07-31T05:49:36;100672.78;;;16.67;100.00
53932;BME280;39844;52.496;13.482;2023-07-31T05:52:02;100677.25;;;16.65;100.00
53932;BME280;39844;52.496;13.482;2023-07-31T05:54:27;100667.53;;;16.65;100.00
53932;BME280;39844;52.496;13.482;2023-07-31T05:56:53;100665.72;;;16.66;100.00
53932;BME280;39844;52.496;13.482;2023-07-31T05:59:18;100657.78;;;16.66;100.00
53932;BME280;39844;52.496;13.482;2023-07-31T06:01:43;100667.34;;;16.71;100.00
53932;BME280;39844;52.496;13.482;2023-07-31T06:04:08;100657.53;;;16.75;100.00
53932;BME280;39844;52.496;13.482;2023-07-31T06:06:34;100655.69;;;16.77;100.00
53932;BME280;39844;52.496;13.482;2023-07-31T06:08:59;100671.50;;;16.80;100.00
53932;BME280;39844;52.496;13.482;2023-07-31T06:11:25;100664.44;;;16.80;100.00
53932;BME280;39844;52.496;13.482;2023-07-31T06:13:50;100657.31;;;16.81;100.00
53932;BME280;39844;52.496;13.482;2023-07-31T06:16:16;100665.25;;;16.81;100.00
53932;BME280;39844;52.496;13.482;2023-07-31T06:18:41;100660.91;;;16.80;100.00
53932;BME280;39844;52.496;13.482;2023-07-31T06:21:07;100660.81;;;16.83;100.00
53932;BME280;39844;52.496;13.482;2023-07-31T06:23:32;100661.56;;;16.86;100.00
53932;BME280;39844;52.496;13.482;2023-07-31T06:25:58;100654.44;;;16.88;100.00
53932;BME280;39844;52.496;13.482;2023-07-31T06:28:27;100661.41;;;16.91;100.00
53932;BME280;39844;52.496;13.482;2023-07-31T06:30:53;100659.63;;;16.91;100.00
53932;BME280;39844;52.496;13.482;2023-07-31T06:33:18;100663.09;;;16.93;100.00
53932;BME280;39844;52.496;13.482;2023-07-31T06:35:43;100660.44;;;16.95;100.00
53932;BME280;39844;52.496;13.482;2023-07-31T06:38:09;100664.78;;;16.96;100.00
53932;BME280;39844;52.496;13.482;2023-07-31T06:40:34;100654.97;;;16.99;100.00
53932;BME280;39844;52.496;13.482;2023-07-31T06:42:59;100661.97;;;17.02;100.00
53932;BME280;39844;52.496;13.482;2023-07-31T06:45:25;100658.41;;;17.03;100.00
53932;BME280;39844;52.496;13.482;2023-07-31T06:47:53;100660.94;;;17.06;100.00
53932;BME280;39844;52.496;13.482;2023-07-31T06:50:18;100653.69;;;17.11;100.00
53932;BME280;39844;52.496;13.482;2023-07-31T06:52:43;100658.00;;;17.15;100.00
53932;BME280;39844;52.496;13.482;2023-07-31T06:55:19;100652.66;;;17.17;100.00
53932;BME280;39844;52.496;13.482;2023-07-31T06:57:46;100656.97;;;17.19;100.00
53932;BME280;39844;52.496;13.482;2023-07-31T07:00:11;100650.78;;;17.20;100.00
53932;BME280;39844;52.496;13.482;2023-07-31T07:02:37;100662.16;;;17.24;100.00
53932;BME280;39844;52.496;13.482;2023-07-31T07:05:02;100652.47;;;17.23;100.00
53932;BME280;39844;52.496;13.482;2023-07-31T07:07:28;100648.13;;;17.20;100.00
53932;BME280;39844;52.496;13.482;2023-07-31T07:09:53;100657.94;;;17.18;100.00
53932;BME280;39844;52.496;13.482;2023-07-31T07:12:18;100655.31;;;17.17;100.00
53932;BME280;39844;52.496;13.482;2023-07-31T07:14:44;100659.56;;;17.22;100.00
53932;BME280;39844;52.496;13.482;2023-07-31T07:17:09;100661.38;;;17.20;100.00
53932;BME280;39844;52.496;13.482;2023-07-31T07:19:34;100656.28;;;17.14;100.00
53932;BME280;39844;52.496;13.482;2023-07-31T07:21:59;100667.84;;;17.12;100.00
53932;BME280;39844;52.496;13.482;2023-07-31T07:24:25;100660.84;;;17.09;100.00
53932;BME280;39844;52.496;13.482;2023-07-31T07:26:50;100661.66;;;17.11;100.00
53932;BME280;39844;52.496;13.482;2023-07-31T07:29:15;100658.09;;;17.12;100.00
53932;BME280;39844;52.496;13.482;2023-07-31T07:31:41;100662.50;;;17.13;100.00
53932;BME280;39844;52.496;13.482;2023-07-31T07:34:06;100651.84;;;17.15;100.00
53932;BME280;39844;52.496;13.482;2023-07-31T07:36:31;100656.09;;;17.20;100.00
53932;BME280;39844;52.496;13.482;2023-07-31T07:38:56;100651.41;;;17.28;100.00
53932;BME280;39844;52.496;13.482;2023-07-31T07:41:22;100647.69;;;17.34;100.00
53932;BME280;39844;52.496;13.482;2023-07-31T07:43:47;100658.09;;;17.40;100.00
53932;BME280;39844;52.496;13.482;2023-07-31T07:46:12;100642.66;;;17.52;100.00
53932;BME280;39844;52.496;13.482;2023-07-31T07:48:37;100649.53;;;17.58;100.00
53932;BME280;39844;52.496;13.482;2023-07-31T07:51:03;100639.69;;;17.61;100.00
53932;BME280;39844;52.496;13.482;2023-07-31T07:53:28;100634.97;;;17.69;100.00
53932;BME280;39844;52.496;13.482;2023-07-31T07:55:53;100635.84;;;17.70;100.00
53932;BME280;39844;52.496;13.482;2023-07-31T07:58:19;100630.59;;;17.68;99.72
53932;BME280;39844;52.496;13.482;2023-07-31T08:00:51;100633.91;;;17.75;100.00
53932;BME280;39844;52.496;13.482;2023-07-31T08:03:16;100626.72;;;17.79;100.00
53932;BME280;39844;52.496;13.482;2023-07-31T08:05:42;100631.09;;;17.80;100.00
53932;BME280;39844;52.496;13.482;2023-07-31T08:08:07;100624.25;;;17.73;98.95
53932;BME280;39844;52.496;13.482;2023-07-31T08:10:32;100630.28;;;17.78;100.00
53932;BME280;39844;52.496;13.482;2023-07-31T08:12:58;100641.66;;;17.81;100.00
53932;BME280;39844;52.496;13.482;2023-07-31T08:15:25;100631.03;;;17.81;100.00
53932;BME280;39844;52.496;13.482;2023-07-31T08:17:50;100637.53;;;17.73;100.00
53932;BME280;39844;52.496;13.482;2023-07-31T08:20:16;100626.19;;;17.67;99.92
53932;BME280;39844;52.496;13.482;2023-07-31T08:22:41;100629.88;;;17.63;99.93
53932;BME280;39844;52.496;13.482;2023-07-31T08:25:07;100623.78;;;17.61;100.00
53932;BME280;39844;52.496;13.482;2023-07-31T08:27:32;100615.84;;;17.60;100.00
53932;BME280;39844;52.496;13.482;2023-07-31T08:29:57;100619.38;;;17.60;100.00
53932;BME280;39844;52.496;13.482;2023-07-31T08:32:23;100608.59;;;17.65;100.00
53932;BME280;39844;52.496;13.482;2023-07-31T08:34:48;100614.59;;;17.70;100.00
53932;BME280;39844;52.496;13.482;2023-07-31T08:37:13;100612.72;;;17.74;100.00
53932;BME280;39844;52.496;13.482;2023-07-31T08:39:41;100618.75;;;17.79;100.00
53932;BME280;39844;52.496;13.482;2023-07-31T08:42:09;100617.94;;;17.77;100.00
53932;BME280;39844;52.496;13.482;2023-07-31T08:44:35;100620.59;;;17.77;100.00
53932;BME280;39844;52.496;13.482;2023-07-31T08:47:00;100620.59;;;17.77;100.00
53932;BME280;39844;52.496;13.482;2023-07-31T08:49:27;100618.84;;;17.76;100.00
53932;BME280;39844;52.496;13.482;2023-07-31T08:51:52;100620.59;;;17.77;100.00
53932;BME280;39844;52.496;13.482;2023-07-31T08:54:19;100619.63;;;17.79;100.00
53932;BME280;39844;52.496;13.482;2023-07-31T08:56:45;100613.31;;;17.82;100.00
53932;BME280;39844;52.496;13.482;2023-07-31T08:59:11;100612.00;;;17.93;100.00
53932;BME280;39844;52.496;13.482;2023-07-31T09:01:43;100616.34;;;17.96;100.00
53932;BME280;39844;52.496;13.482;2023-07-31T09:04:09;100618.91;;;17.99;100.00
53932;BME280;39844;52.496;13.482;2023-07-31T09:06:36;100613.41;;;18.03;100.00
53932;BME280;39844;52.496;13.482;2023-07-31T09:09:02;100607.13;;;18.06;99.87
53932;BME280;39844;52.496;13.482;2023-07-31T09:11:27;100617.63;;;18.09;98.83
53932;BME280;39844;52.496;13.482;2023-07-31T09:13:53;100611.34;;;18.11;98.66
53932;BME280;39844;52.496;13.482;2023-07-31T09:16:27;100610.16;;;18.20;99.83
53932;BME280;39844;52.496;13.482;2023-07-31T09:18:56;100611.75;;;18.24;98.45
53932;BME280;39844;52.496;13.482;2023-07-31T09:21:23;100614.25;;;18.28;99.26
53932;BME280;39844;52.496;13.482;2023-07-31T09:23:49;100615.22;;;18.26;97.11
53932;BME280;39844;52.496;13.482;2023-07-31T09:28:56;100608.34;;;18.20;97.68
53932;BME280;39844;52.496;13.482;2023-07-31T09:31:41;100601.25;;;18.21;97.09
53932;BME280;39844;52.496;13.482;2023-07-31T09:34:06;100609.19;;;18.22;97.69
53932;BME280;39844;52.496;13.482;2023-07-31T09:36:32;100607.59;;;18.17;96.99
53932;BME280;39844;52.496;13.482;2023-07-31T09:39:04;100607.09;;;18.07;97.47
53932;BME280;39844;52.496;13.482;2023-07-31T09:41:35;100609.31;;;17.95;98.15
53932;BME280;39844;52.496;13.482;2023-07-31T09:44:01;100606.09;;;17.85;99.61
53932;BME280;39844;52.496;13.482;2023-07-31T09:46:27;100612.53;;;17.80;100.00
53932;BME280;39844;52.496;13.482;2023-07-31T09:48:52;100606.44;;;17.76;100.00
53932;BME280;39844;52.496;13.482;2023-07-31T09:51:26;100605.56;;;17.76;100.00
53932;BME280;39844;52.496;13.482;2023-07-31T09:53:51;100606.38;;;17.78;100.00
53932;BME280;39844;52.496;13.482;2023-07-31T09:56:18;100607.25;;;17.78;100.00
53932;BME280;39844;52.496;13.482;2023-07-31T09:58:44;100607.25;;;17.78;100.00
53932;BME280;39844;52.496;13.482;2023-07-31T10:01:10;100600.97;;;17.81;100.00
53932;BME280;39844;52.496;13.482;2023-07-31T10:03:37;100602.47;;;17.88;100.00
53932;BME280;39844;52.496;13.482;2023-07-31T10:06:04;100603.06;;;17.96;100.00
53932;BME280;39844;52.496;13.482;2023-07-31T10:08:32;100587.72;;;18.04;100.00
53932;BME280;39844;52.496;13.482;2023-07-31T10:11:00;100593.81;;;18.07;99.00
53932;BME280;39844;52.496;13.482;2023-07-31T10:13:28;100584.66;;;18.14;99.69
53932;BME280;39844;52.496;13.482;2023-07-31T10:15:54;100584.38;;;18.22;97.69
53932;BME280;39844;52.496;13.482;2023-07-31T10:18:23;100588.53;;;18.29;97.39
53932;BME280;39844;52.496;13.482;2023-07-31T10:20:49;100586.66;;;18.33;98.54
53932;BME280;39844;52.496;13.482;2023-07-31T10:23:15;100586.47;;;18.37;97.44
53932;BME280;39844;52.496;13.482;2023-07-31T10:25:41;100586.38;;;18.39;97.06
53932;BME280;39844;52.496;13.482;2023-07-31T10:28:08;100575.91;;;18.36;96.98
53932;BME280;39844;52.496;13.482;2023-07-31T10:30:35;100580.28;;;18.37;97.10
53932;BME280;39844;52.496;13.482;2023-07-31T10:33:01;100574.91;;;18.38;97.64
53932;BME280;39844;52.496;13.482;2023-07-31T10:35:27;100587.34;;;18.38;98.00
53932;BME280;39844;52.496;13.482;2023-07-31T10:37:53;100579.19;;;18.42;99.35
53932;BME280;39844;52.496;13.482;2023-07-31T10:40:20;100576.03;;;18.56;99.39
53932;BME280;39844;52.496;13.482;2023-07-31T10:42:53;100573.00;;;18.65;98.49
53932;BME280;39844;52.496;13.482;2023-07-31T10:45:27;100570.84;;;18.74;98.43
53932;BME280;39844;52.496;13.482;2023-07-31T10:48:21;100564.28;;;18.83;97.17
53932;BME280;39844;52.496;13.482;2023-07-31T10:50:51;100562.88;;;18.96;96.65
53932;BME280;39844;52.496;13.482;2023-07-31T10:53:28;100553.97;;;19.17;95.74
53932;BME280;39844;52.496;13.482;2023-07-31T10:55:58;100546.53;;;19.47;94.23
53932;BME280;39844;52.496;13.482;2023-07-31T10:58:24;100533.88;;;19.72;89.88
53932;BME280;39844;52.496;13.482;2023-07-31T11:00:52;100544.66;;;19.89;90.32
53932;BME280;39844;52.496;13.482;2023-07-31T11:03:19;100527.81;;;20.07;88.60
53932;BME280;39844;52.496;13.482;2023-07-31T11:05:52;100524.59;;;20.19;86.97
53932;BME280;39844;52.496;13.482;2023-07-31T11:08:22;100514.75;;;20.40;86.02
53932;BME280;39844;52.496;13.482;2023-07-31T11:10:50;100523.16;;;20.50;81.75
53932;BME280;39844;52.496;13.482;2023-07-31T11:13:16;100519.88;;;20.80;84.21
53932;BME280;39844;52.496;13.482;2023-07-31T11:15:42;100518.25;;;20.95;78.18
53932;BME280;39844;52.496;13.482;2023-07-31T11:18:07;100525.06;;;20.84;75.46
53932;BME280;39844;52.496;13.482;2023-07-31T11:20:32;100522.38;;;20.66;76.11
53932;BME280;39844;52.496;13.482;2023-07-31T11:35:14;100525.94;;;20.84;71.44
53932;BME280;39844;52.496;13.482;2023-07-31T11:37:43;100508.03;;;20.86;71.58
53932;BME280;39844;52.496;13.482;2023-07-31T11:40:10;100509.56;;;20.92;71.45
53932;BME280;39844;52.496;13.482;2023-07-31T11:42:35;100506.00;;;20.91;67.94
53932;BME280;39844;52.496;13.482;2023-07-31T11:45:05;100511.50;;;20.88;66.67
53932;BME280;39844;52.496;13.482;2023-07-31T11:47:35;100512.38;;;20.89;67.92
53932;BME280;39844;52.496;13.482;2023-07-31T11:50:01;100516.34;;;20.80;67.41
53932;BME280;39844;52.496;13.482;2023-07-31T11:52:29;100520.34;;;20.71;68.07
53932;BME280;39844;52.496;13.482;2023-07-31T11:54:58;100517.03;;;20.66;68.54
53932;BME280;39844;52.496;13.482;2023-07-31T11:57:23;100505.50;;;20.66;68.94
53932;BME280;39844;52.496;13.482;2023-07-31T11:59:50;100507.25;;;20.67;69.38
53932;BME280;39844;52.496;13.482;2023-07-31T12:02:17;100506.41;;;20.65;69.08
53932;BME280;39844;52.496;13.482;2023-07-31T12:04:43;100504.63;;;20.65;70.62
53932;BME280;39844;52.496;13.482;2023-07-31T12:07:08;100506.56;;;20.62;70.29
53932;BME280;39844;52.496;13.482;2023-07-31T12:09:33;100504.22;;;20.56;71.50
53932;BME280;39844;52.496;13.482;2023-07-31T12:11:59;100501.69;;;20.53;71.30
53932;BME280;39844;52.496;13.482;2023-07-31T12:14:28;100499.16;;;20.50;70.76
53932;BME280;39844;52.496;13.482;2023-07-31T12:17:15;100507.81;;;20.55;71.29
53932;BME280;39844;52.496;13.482;2023-07-31T12:19:40;100498.41;;;20.65;69.62
53932;BME280;39844;52.496;13.482;2023-07-31T12:22:15;100485.72;;;20.70;68.91
53932;BME280;39844;52.496;13.482;2023-07-31T12:24:42;100483.69;;;20.75;69.19
53932;BME280;39844;52.496;13.482;2023-07-31T12:27:09;100479.63;;;20.85;69.56
53932;BME280;39844;52.496;13.482;2023-07-31T12:29:35;100482.63;;;20.96;68.91
53932;BME280;39844;52.496;13.482;2023-07-31T12:32:00;100476.91;;;21.04;67.40
53932;BME280;39844;52.496;13.482;2023-07-31T12:34:25;100483.84;;;21.08;67.73
53932;BME280;39844;52.496;13.482;2023-07-31T12:36:53;100474.03;;;21.08;67.85
53932;BME280;39844;52.496;13.482;2023-07-31T12:39:18;100470.09;;;21.15;67.45
53932;BME280;39844;52.496;13.482;2023-07-31T12:41:44;100477.94;;;21.18;66.67
53932;BME280;39844;52.496;13.482;2023-07-31T12:44:09;100464.94;;;21.12;67.04
53932;BME280;39844;52.496;13.482;2023-07-31T12:46:34;100459.34;;;21.17;67.43
53932;BME280;39844;52.496;13.482;2023-07-31T12:48:59;100459.19;;;21.20;68.08
53932;BME280;39844;52.496;13.482;2023-07-31T12:51:25;100452.50;;;21.28;68.29